Time;durP1;ratioP1;P1;durP2;ratioP2;P2;SDS_P1;SDS_P2;PMS_P1;PMS_P2;Temp;Humidity;BMP_temperature;BMP_pressure;BME280_temperature;BME280_humidity;BME280_pressure;Samples;Min_cycle;Max_cycle;Signal;HPM_P1;HPM_P2
2022/02/08 00:00:41;;;;;;;24.73;6.55;;;7.90;99.90;;;;;;5088897;28;20117;-74
2022/02/08 00:03:08;;;;;;;19.65;5.82;;;7.90;99.90;;;;;;5084668;28;20020;-74
2022/02/08 00:05:34;;;;;;;28.42;5.95;;;7.90;99.90;;;;;;5089189;28;20040;-74
2022/02/08 00:07:59;;;;;;;31.05;6.40;;;8.00;99.90;;;;;;5091680;28;20392;-74
2022/02/08 00:10:29;;;;;;;29.30;5.18;;;8.00;99.90;;;;;;5089572;28;20036;-74
2022/02/08 00:12:57;;;;;;;24.98;6.10;;;8.00;99.90;;;;;;5089155;28;20016;-74
2022/02/08 00:15:23;;;;;;;26.23;5.93;;;8.00;99.90;;;;;;5090919;28;20492;-74
2022/02/08 00:17:48;;;;;;;26.13;5.53;;;8.00;99.90;;;;;;5091779;28;20521;-74
2022/02/08 00:20:14;;;;;;;27.85;5.63;;;8.00;99.90;;;;;;5088528;28;20124;-74
2022/02/08 00:22:40;;;;;;;28.38;6.45;;;8.00;99.90;;;;;;5082268;28;20024;-74
2022/02/08 00:25:06;;;;;;;23.25;6.32;;;8.00;99.90;;;;;;5088338;28;20040;-73
2022/02/08 00:27:32;;;;;;;34.92;6.13;;;8.00;99.90;;;;;;5083077;28;20044;-73
2022/02/08 00:29:58;;;;;;;33.83;6.95;;;8.00;99.90;;;;;;5090602;28;20028;-74
2022/02/08 00:32:23;;;;;;;26.60;6.78;;;8.00;99.90;;;;;;5086550;28;20036;-74
2022/02/08 00:34:49;;;;;;;26.92;6.10;;;8.00;99.90;;;;;;5090266;28;20100;-73
2022/02/08 00:37:15;;;;;;;22.08;5.82;;;8.10;99.90;;;;;;5091091;28;20103;-73
2022/02/08 00:39:42;;;;;;;28.90;7.15;;;8.10;99.90;;;;;;5091216;28;20103;-73
2022/02/08 00:42:10;;;;;;;29.10;6.43;;;8.10;99.90;;;;;;5081948;28;20047;-74
2022/02/08 00:44:42;;;;;;;30.90;7.25;;;8.10;99.90;;;;;;5090129;28;20040;-73
2022/02/08 00:49:49;;;;;;;28.80;7.03;;;8.10;99.90;;;;;;5087437;28;20032;-74
2022/02/08 00:52:15;;;;;;;33.70;6.90;;;8.10;99.90;;;;;;5090545;28;20438;-74
2022/02/08 00:54:50;;;;;;;29.08;6.15;;;8.10;99.90;;;;;;5090886;28;20525;-74
2022/02/08 00:57:17;;;;;;;36.25;6.18;;;8.10;99.90;;;;;;5088067;28;20031;-75
2022/02/08 00:59:43;;;;;;;26.25;6.32;;;8.20;99.90;;;;;;5085779;28;20062;-74
2022/02/08 01:02:09;;;;;;;28.38;6.80;;;8.20;99.90;;;;;;5082948;28;20464;-74
2022/02/08 01:04:35;;;;;;;35.00;6.88;;;8.20;99.90;;;;;;5088362;28;20046;-74
2022/02/08 01:07:03;;;;;;;23.48;5.85;;;8.20;99.90;;;;;;5085262;28;20369;-74
2022/02/08 01:09:52;;;;;;;31.75;6.60;;;8.10;99.90;;;;;;5085346;28;20024;-73
2022/02/08 01:12:19;;;;;;;36.97;7.32;;;8.10;99.90;;;;;;5088362;28;20499;-74
2022/02/08 01:14:48;;;;;;;35.63;6.40;;;8.10;99.90;;;;;;5087127;28;20032;-73
2022/02/08 01:17:15;;;;;;;33.53;7.20;;;8.10;99.90;;;;;;5090715;28;20024;-73
2022/02/08 01:19:50;;;;;;;29.42;6.45;;;8.10;99.90;;;;;;5090431;28;20028;-73
2022/02/08 01:22:16;;;;;;;29.02;7.45;;;8.10;99.90;;;;;;5084611;28;20036;-74
2022/02/08 01:24:43;;;;;;;32.20;7.55;;;8.20;99.90;;;;;;5085267;28;20029;-74
2022/02/08 01:27:11;;;;;;;26.92;7.60;;;8.10;99.90;;;;;;5092060;28;20051;-74
2022/02/08 01:35:26;;;;;;;29.15;8.13;;;8.10;99.90;;;;;;5090544;28;20039;-73
2022/02/08 01:44:09;;;;;;;23.83;6.97;;;8.10;99.90;;;;;;5087116;28;20051;-75
2022/02/08 01:51:06;;;;;;;28.25;8.45;;;8.10;99.90;;;;;;5085857;28;20237;-73
2022/02/08 01:53:31;;;;;;;31.25;8.73;;;8.10;99.90;;;;;;5093863;28;20025;-74
2022/02/08 01:55:57;;;;;;;34.75;9.80;;;8.10;99.90;;;;;;5088682;28;20032;-74
2022/02/08 01:58:23;;;;;;;24.63;7.38;;;8.20;99.90;;;;;;5089804;28;20084;-74
2022/02/08 02:00:49;;;;;;;21.77;8.65;;;8.20;99.90;;;;;;5087567;28;20024;-73
2022/02/08 02:03:15;;;;;;;24.50;8.50;;;8.20;99.90;;;;;;5090652;28;20444;-73
2022/02/08 02:05:41;;;;;;;35.08;9.20;;;8.20;99.90;;;;;;5092707;28;20141;-74
2022/02/08 02:08:07;;;;;;;31.35;8.90;;;8.20;99.90;;;;;;5093703;28;20024;-73
2022/02/08 02:10:33;;;;;;;25.60;8.45;;;8.20;99.90;;;;;;5089445;28;20115;-73
2022/02/08 02:13:12;;;;;;;25.02;8.85;;;8.30;99.90;;;;;;5087546;28;20078;-73
2022/02/08 02:15:37;;;;;;;29.52;9.70;;;8.30;99.90;;;;;;5090410;28;20013;-73
2022/02/08 02:18:03;;;;;;;30.67;10.35;;;8.30;99.90;;;;;;5084767;28;20032;-73
2022/02/08 02:20:30;;;;;;;23.05;9.18;;;8.40;99.90;;;;;;5089442;28;20396;-73
2022/02/08 02:22:56;;;;;;;36.08;10.05;;;8.40;99.90;;;;;;5090228;28;20177;-73
2022/02/08 02:25:22;;;;;;;29.65;9.95;;;8.40;99.90;;;;;;5088713;28;20613;-73
2022/02/08 02:27:49;;;;;;;24.45;9.85;;;8.40;99.90;;;;;;5091982;28;20086;-73
2022/02/08 02:30:16;;;;;;;35.50;10.82;;;8.40;99.90;;;;;;5086188;28;20440;-73
2022/02/08 02:32:42;;;;;;;19.95;7.97;;;8.40;99.90;;;;;;5091549;28;20056;-73
2022/02/08 02:35:08;;;;;;;23.77;9.13;;;8.40;99.90;;;;;;5087926;28;20388;-73
2022/02/08 02:37:34;;;;;;;40.95;11.52;;;8.40;99.90;;;;;;5092465;28;20020;-74
2022/02/08 02:40:00;;;;;;;26.58;11.52;;;8.40;99.90;;;;;;5086380;28;20021;-73
2022/02/08 02:42:27;;;;;;;31.70;10.55;;;8.50;99.90;;;;;;5093416;28;20032;-73
2022/02/08 02:44:53;;;;;;;28.73;9.82;;;8.50;99.90;;;;;;5091324;28;20024;-73
2022/02/08 02:47:19;;;;;;;26.73;8.98;;;8.50;99.90;;;;;;5092888;28;20047;-74
2022/02/08 02:49:45;;;;;;;26.15;9.95;;;8.50;99.90;;;;;;5087091;28;20032;-73
2022/02/08 02:52:10;;;;;;;24.17;8.77;;;8.50;99.90;;;;;;5091877;28;20024;-73
2022/02/08 02:54:36;;;;;;;25.65;10.45;;;8.50;99.90;;;;;;5092772;28;20424;-74
2022/02/08 02:57:02;;;;;;;29.38;10.77;;;8.60;99.90;;;;;;5087417;28;20024;-74
2022/02/08 02:59:33;;;;;;;25.08;10.27;;;8.60;99.90;;;;;;5089164;28;20032;-73
2022/02/08 03:02:28;;;;;;;38.05;10.90;;;8.60;99.90;;;;;;5086783;28;20134;-73
2022/02/08 03:05:09;;;;;;;34.58;11.13;;;8.60;99.90;;;;;;5089345;28;20120;-73
2022/02/08 03:18:38;;;;;;;43.67;16.75;;;8.70;99.90;;;;;;5092047;28;20094;-74
2022/02/08 03:21:06;;;;;;;46.28;20.80;;;8.60;99.90;;;;;;5086755;28;20438;-73
2022/02/08 03:23:32;;;;;;;47.03;23.77;;;8.70;99.90;;;;;;5086075;28;20027;-73
2022/02/08 03:25:59;;;;;;;57.78;26.15;;;8.70;99.90;;;;;;5090948;28;20044;-73
2022/02/08 03:28:25;;;;;;;46.30;21.65;;;8.70;99.90;;;;;;5089841;28;20016;-74
2022/02/08 03:30:51;;;;;;;46.30;22.73;;;8.70;99.90;;;;;;5086565;28;20400;-74
2022/02/08 03:33:20;;;;;;;53.45;24.42;;;8.70;99.90;;;;;;5080867;28;20020;-74
2022/02/08 03:35:46;;;;;;;49.22;21.50;;;8.80;99.90;;;;;;5086028;28;20036;-74
2022/02/08 03:38:15;;;;;;;46.65;19.55;;;8.80;99.90;;;;;;5086047;28;20027;-73
2022/02/08 03:40:46;;;;;;;30.35;14.82;;;8.90;99.90;;;;;;5090860;28;20354;-74
2022/02/08 03:45:47;;;;;;;30.25;14.23;;;8.80;99.90;;;;;;5092612;28;20048;-74
2022/02/08 03:48:16;;;;;;;27.98;12.20;;;8.80;99.90;;;;;;5089741;28;20054;-76
2022/02/08 03:50:44;;;;;;;30.92;12.55;;;8.70;99.90;;;;;;5089799;28;20393;-75
2022/02/08 03:53:10;;;;;;;28.33;12.25;;;8.80;99.90;;;;;;5084263;28;20490;-75
2022/02/08 03:55:36;;;;;;;30.05;13.75;;;8.80;99.90;;;;;;5089978;28;20036;-75
2022/02/08 03:58:02;;;;;;;26.10;11.90;;;8.80;99.90;;;;;;5087168;28;20020;-75
2022/02/08 04:00:32;;;;;;;28.33;13.20;;;8.70;99.90;;;;;;5091921;28;20023;-74
2022/02/08 04:02:58;;;;;;;23.92;13.10;;;8.80;99.90;;;;;;5085298;28;20066;-75
2022/02/08 04:07:57;;;;;;;22.17;12.40;;;8.80;99.90;;;;;;5090635;28;20032;-75
2022/02/08 04:10:26;;;;;;;26.73;12.93;;;8.80;99.90;;;;;;5083002;28;20502;-75
2022/02/08 04:31:53;;;;;;;24.85;10.93;;;8.90;99.90;;;;;;5086323;28;20126;-74
2022/02/08 04:34:26;;;;;;;15.60;10.25;;;8.90;99.90;;;;;;5084434;28;21016;-74
2022/02/08 04:40:00;;;;;;;22.70;11.55;;;9.00;99.90;;;;;;5089348;28;20078;-74
2022/02/08 04:42:43;;;;;;;21.65;11.85;;;8.90;99.90;;;;;;5089650;28;20056;-74
2022/02/08 04:45:50;;;;;;;21.33;11.13;;;9.00;99.90;;;;;;5085185;28;20039;-74
2022/02/08 04:48:13;;;;;;;21.43;11.40;;;9.00;99.90;;;;;;5086979;28;20476;-74
2022/02/08 04:50:40;;;;;;;20.25;12.70;;;9.00;99.90;;;;;;5085894;28;20106;-74
2022/02/08 04:53:14;;;;;;;28.13;13.77;;;9.10;99.90;;;;;;5085776;28;20036;-75
2022/02/08 04:58:46;;;;;;;31.25;14.68;;;9.10;99.90;;;;;;5066621;28;20120;-74
2022/02/08 05:44:06;;;;;;;26.10;13.57;;;9.10;99.90;;;;;;5082879;28;20032;-75
2022/02/08 05:49:08;;;;;;;25.50;12.20;;;9.20;99.90;;;;;;5081039;28;20049;-75
2022/02/08 05:52:22;;;;;;;22.05;12.88;;;9.20;99.90;;;;;;5088190;28;20135;-74
2022/02/08 05:54:23;;;;;;;25.58;13.60;;;9.30;99.90;;;;;;5087224;28;20029;-74
2022/02/08 05:56:53;;;;;;;19.73;10.80;;;9.30;99.90;;;;;;5082006;28;20039;-74
2022/02/08 05:59:19;;;;;;;16.95;9.65;;;9.30;99.90;;;;;;5090115;28;20016;-74
2022/02/08 06:01:45;;;;;;;19.73;11.13;;;9.30;99.90;;;;;;5086940;28;20028;-74
2022/02/08 06:04:12;;;;;;;17.33;10.15;;;9.20;99.90;;;;;;5088012;28;20031;-74
2022/02/08 06:06:37;;;;;;;19.35;10.45;;;9.20;99.90;;;;;;5081344;28;20037;-74
2022/02/08 06:09:03;;;;;;;17.05;9.40;;;9.30;99.90;;;;;;5089168;28;20036;-74
2022/02/08 06:11:29;;;;;;;24.48;10.93;;;9.30;99.90;;;;;;5084848;28;20036;-74
2022/02/08 06:13:58;;;;;;;20.50;11.98;;;9.30;99.90;;;;;;5087018;28;20064;-75
2022/02/08 06:16:25;;;;;;;19.38;11.32;;;9.30;99.90;;;;;;5085179;28;20027;-75
2022/02/08 06:18:50;;;;;;;24.48;12.68;;;9.30;99.90;;;;;;5087709;28;20050;-74
2022/02/08 06:21:16;;;;;;;21.30;11.18;;;9.30;99.90;;;;;;5085544;28;20031;-74
2022/02/08 06:23:42;;;;;;;25.45;13.07;;;9.30;99.90;;;;;;5084115;28;20081;-75
2022/02/08 06:26:08;;;;;;;25.00;13.93;;;9.40;99.90;;;;;;5086685;28;20466;-74
2022/02/08 06:28:33;;;;;;;25.83;12.18;;;9.40;99.90;;;;;;5085425;28;20024;-74
2022/02/08 06:30:59;;;;;;;30.45;14.50;;;9.40;99.90;;;;;;5090323;28;20021;-74
2022/02/08 06:33:26;;;;;;;30.20;14.18;;;9.40;99.90;;;;;;5080859;28;20038;-74
2022/02/08 06:35:51;;;;;;;33.08;14.65;;;9.40;99.90;;;;;;5091085;28;20016;-74
2022/02/08 06:38:19;;;;;;;33.60;14.77;;;9.40;99.90;;;;;;5087559;28;20045;-74
2022/02/08 06:40:48;;;;;;;35.83;16.80;;;9.30;99.90;;;;;;5090558;28;20043;-74
2022/02/08 06:43:15;;;;;;;38.20;17.40;;;9.40;99.90;;;;;;5086641;28;20381;-74
2022/02/08 06:45:41;;;;;;;36.08;17.23;;;9.40;99.90;;;;;;5089560;28;20035;-74
2022/02/08 06:48:08;;;;;;;37.72;17.60;;;9.50;99.90;;;;;;5085331;28;20412;-74
2022/02/08 06:50:34;;;;;;;29.45;15.82;;;9.50;99.90;;;;;;5090609;28;20052;-74
2022/02/08 06:52:59;;;;;;;34.63;16.73;;;9.50;99.90;;;;;;5093389;28;20447;-74
2022/02/08 06:55:27;;;;;;;32.85;18.20;;;9.50;99.90;;;;;;5091533;28;20024;-74
2022/02/08 06:58:05;;;;;;;34.58;18.80;;;9.50;99.90;;;;;;5087570;28;20157;-74
2022/02/08 07:00:37;;;;;;;38.38;18.20;;;9.50;99.90;;;;;;5089291;28;20558;-74
2022/02/08 07:03:08;;;;;;;37.42;18.33;;;9.50;99.90;;;;;;5091851;28;20025;-75
2022/02/08 07:05:33;;;;;;;35.63;19.45;;;9.50;99.90;;;;;;5090705;28;20056;-75
2022/02/08 07:07:59;;;;;;;39.60;18.33;;;9.50;99.90;;;;;;5085002;28;20103;-74
2022/02/08 07:10:27;;;;;;;36.92;19.25;;;9.50;99.90;;;;;;5087410;28;20050;-74
2022/02/08 07:12:53;;;;;;;38.35;19.35;;;9.60;99.90;;;;;;5084292;28;20427;-74
2022/02/08 07:15:20;;;;;;;39.20;19.58;;;9.60;99.90;;;;;;5093110;28;20077;-74
2022/02/08 07:17:45;;;;;;;40.30;20.20;;;9.60;99.90;;;;;;5087402;28;20081;-74
2022/02/08 07:20:12;;;;;;;39.33;19.83;;;9.60;99.90;;;;;;5092406;28;20111;-76
2022/02/08 07:22:37;;;;;;;39.55;19.05;;;9.60;99.90;;;;;;5090956;28;20020;-75
2022/02/08 07:25:04;;;;;;;34.08;18.60;;;9.60;99.90;;;;;;5090794;28;20028;-74
2022/02/08 07:27:30;;;;;;;36.85;18.15;;;9.70;99.90;;;;;;5085228;28;20115;-75
2022/02/08 07:29:57;;;;;;;34.05;17.90;;;9.60;99.90;;;;;;5092499;28;20027;-75
2022/02/08 07:32:35;;;;;;;32.70;17.38;;;9.60;99.90;;;;;;5085732;28;20016;-74
2022/02/08 07:37:50;;;;;;;33.88;16.52;;;9.70;99.90;;;;;;5087621;28;20370;-74
2022/02/08 07:43:01;;;;;;;32.38;15.70;;;9.60;99.90;;;;;;5089924;28;20036;-74
2022/02/08 07:45:26;;;;;;;32.95;16.38;;;9.60;99.90;;;;;;5090657;28;20114;-75
2022/02/08 07:47:52;;;;;;;35.33;16.80;;;9.70;99.90;;;;;;5091232;28;20111;-75
2022/02/08 07:50:19;;;;;;;30.35;15.25;;;9.80;99.90;;;;;;5091539;28;20198;-75
2022/02/08 07:52:45;;;;;;;32.05;13.73;;;9.70;99.90;;;;;;5084657;28;20016;-75
2022/02/08 07:55:11;;;;;;;32.85;16.30;;;9.70;99.90;;;;;;5089369;28;20388;-75
2022/02/08 07:57:38;;;;;;;25.23;15.05;;;9.80;99.90;;;;;;5090309;28;20487;-75
2022/02/08 08:00:04;;;;;;;30.33;14.65;;;9.80;99.90;;;;;;5084097;28;20059;-75
2022/02/08 08:02:30;;;;;;;30.50;14.85;;;9.70;99.90;;;;;;5090536;28;20165;-74
2022/02/08 08:04:57;;;;;;;29.05;15.23;;;9.80;99.90;;;;;;5088223;28;20134;-75
2022/02/08 08:07:24;;;;;;;32.28;14.15;;;9.90;99.90;;;;;;5089290;28;20466;-75
2022/02/08 08:09:50;;;;;;;32.20;16.13;;;9.90;99.90;;;;;;5090422;28;20539;-75
2022/02/08 08:12:16;;;;;;;33.50;15.10;;;9.90;99.90;;;;;;5088124;28;20036;-75
2022/02/08 08:14:43;;;;;;;33.13;16.77;;;9.90;99.90;;;;;;5085159;28;20050;-75
2022/02/08 08:17:39;;;;;;;30.00;13.98;;;10.00;99.90;;;;;;5087703;28;20035;-76
2022/02/08 08:20:00;;;;;;;27.83;14.15;;;10.00;99.90;;;;;;5090456;28;20110;-75
2022/02/08 08:22:25;;;;;;;26.70;14.00;;;10.10;99.90;;;;;;5088787;28;20158;-76
2022/02/08 08:24:51;;;;;;;27.30;12.70;;;10.00;99.90;;;;;;5087205;28;20031;-75
2022/02/08 08:27:18;;;;;;;27.58;13.60;;;10.00;99.90;;;;;;5088267;28;20048;-75
2022/02/08 08:29:44;;;;;;;25.50;13.20;;;10.00;99.90;;;;;;5088594;28;20042;-75
2022/02/08 08:32:10;;;;;;;28.38;12.88;;;10.00;99.90;;;;;;5087523;28;20017;-76
2022/02/08 08:34:37;;;;;;;19.40;11.38;;;10.00;99.90;;;;;;5087703;28;20652;-77
2022/02/08 08:37:04;;;;;;;25.55;12.60;;;10.10;99.90;;;;;;5089426;28;20043;-75
2022/02/08 08:39:39;;;;;;;25.70;12.68;;;10.10;99.90;;;;;;5091437;28;20032;-75
2022/02/08 08:50:13;;;;;;;19.20;11.57;;;10.20;99.90;;;;;;5079210;28;20028;-74
2022/02/08 08:52:45;;;;;;;19.65;10.73;;;10.30;99.90;;;;;;5097277;28;20059;-74
2022/02/08 08:55:12;;;;;;;24.55;11.30;;;10.30;99.90;;;;;;5087859;28;20027;-75
2022/02/08 08:57:38;;;;;;;22.70;10.60;;;10.30;99.90;;;;;;5088137;28;20024;-75
2022/02/08 09:00:08;;;;;;;21.92;10.40;;;10.40;99.90;;;;;;5085079;28;20092;-76
2022/02/08 09:02:33;;;;;;;26.02;11.63;;;10.40;99.90;;;;;;5086940;28;20016;-75
2022/02/08 09:05:01;;;;;;;21.40;9.80;;;10.40;99.90;;;;;;5078710;28;20088;-77
2022/02/08 09:07:27;;;;;;;19.88;9.32;;;10.40;99.90;;;;;;5080899;28;20032;-75
2022/02/08 09:09:58;;;;;;;17.58;9.00;;;10.40;99.90;;;;;;5088711;28;20032;-76
2022/02/08 09:23:19;;;;;;;17.58;7.68;;;10.40;99.90;;;;;;5084018;28;20038;-76
2022/02/08 09:31:02;;;;;;;12.95;6.55;;;10.40;99.90;;;;;;5084005;28;20028;-76
2022/02/08 09:33:29;;;;;;;15.80;5.90;;;10.50;99.90;;;;;;5084295;28;20380;-76
2022/02/08 09:35:55;;;;;;;11.95;6.28;;;10.50;99.90;;;;;;5091019;28;20403;-76
2022/02/08 09:38:21;;;;;;;16.98;5.78;;;10.60;99.90;;;;;;5089497;28;20023;-75
2022/02/08 09:40:50;;;;;;;13.63;6.20;;;10.70;99.90;;;;;;5079758;28;20503;-76
2022/02/08 09:43:18;;;;;;;14.45;5.07;;;10.70;99.90;;;;;;5090600;28;20044;-76
2022/02/08 09:45:49;;;;;;;12.20;5.68;;;10.70;99.90;;;;;;5087647;28;20086;-75
2022/02/08 09:48:24;;;;;;;12.85;4.57;;;10.70;99.90;;;;;;5082078;28;20028;-76
2022/02/08 09:50:51;;;;;;;14.88;4.72;;;10.70;99.90;;;;;;5090194;28;20021;-75
2022/02/08 09:53:30;;;;;;;12.15;3.80;;;10.80;99.90;;;;;;5082529;28;20024;-75
2022/02/08 09:55:55;;;;;;;12.82;4.00;;;10.70;99.90;;;;;;5081884;28;20032;-76
2022/02/08 09:58:21;;;;;;;8.52;3.70;;;10.80;99.90;;;;;;5089296;28;20016;-75
2022/02/08 10:00:46;;;;;;;11.65;3.40;;;10.80;99.90;;;;;;5086732;28;20383;-75
2022/02/08 10:03:16;;;;;;;8.75;3.75;;;10.70;99.90;;;;;;5086309;28;20028;-76
2022/02/08 10:06:00;;;;;;;10.10;3.35;;;10.70;99.90;;;;;;5089028;28;20016;-75
2022/02/08 10:08:26;;;;;;;6.22;3.08;;;10.70;99.90;;;;;;5085500;28;20068;-76
2022/02/08 10:10:51;;;;;;;13.38;3.58;;;10.80;99.90;;;;;;5093998;28;20101;-75
2022/02/08 10:14:00;;;;;;;9.38;3.13;;;10.90;99.90;;;;;;5087671;28;20036;-75
2022/02/08 10:21:49;;;;;;;8.45;2.78;;;10.90;99.90;;;;;;5093683;28;20453;-75
2022/02/08 10:24:17;;;;;;;6.03;2.50;;;10.90;99.90;;;;;;5091672;28;20118;-76
2022/02/08 10:29:56;;;;;;;7.38;2.40;;;10.90;99.90;;;;;;5088239;28;20496;-76
2022/02/08 10:37:39;;;;;;;4.88;2.30;;;11.10;99.90;;;;;;5087093;28;20089;-76
2022/02/08 10:40:05;;;;;;;10.75;2.92;;;11.10;99.90;;;;;;5089585;28;20035;-77
2022/02/08 10:42:31;;;;;;;8.48;2.47;;;11.10;99.90;;;;;;5088194;28;20035;-76
2022/02/08 10:44:58;;;;;;;6.47;2.33;;;11.20;99.90;;;;;;5091279;28;20081;-77
2022/02/08 10:47:37;;;;;;;13.80;2.60;;;11.30;99.90;;;;;;5090421;28;20044;-76
2022/02/08 10:50:06;;;;;;;6.53;2.05;;;11.30;99.90;;;;;;5091839;28;20065;-76
2022/02/08 10:52:32;;;;;;;7.95;2.70;;;11.40;99.90;;;;;;5087838;28;20032;-77
2022/02/08 10:55:06;;;;;;;8.63;2.35;;;11.40;99.90;;;;;;5087584;28;20123;-75
2022/02/08 10:57:44;;;;;;;6.88;1.73;;;11.40;99.90;;;;;;5091802;28;20476;-76
2022/02/08 11:00:11;;;;;;;7.38;2.17;;;11.50;99.90;;;;;;5087193;28;20039;-76
2022/02/08 11:02:43;;;;;;;6.85;2.08;;;11.50;99.90;;;;;;5091949;28;20499;-75
2022/02/08 11:05:19;;;;;;;7.53;1.90;;;11.50;99.90;;;;;;5085863;28;20059;-77
2022/02/08 11:16:08;;;;;;;7.95;2.33;;;11.70;99.90;;;;;;5082683;28;20060;-76
2022/02/08 11:26:35;;;;;;;4.88;2.45;;;11.90;99.90;;;;;;5091832;28;20040;-76
2022/02/08 11:29:18;;;;;;;9.40;2.75;;;11.80;99.90;;;;;;5085382;28;20016;-76
2022/02/08 11:31:51;;;;;;;6.85;3.40;;;11.90;99.90;;;;;;5091864;28;20080;-76
2022/02/08 12:05:03;;;;;;;9.00;1.92;;;12.20;99.90;;;;;;5087073;28;20042;-76
2022/02/08 12:07:28;;;;;;;9.00;2.78;;;12.20;99.90;;;;;;5087589;28;20058;-76
2022/02/08 12:10:08;;;;;;;9.07;2.03;;;12.20;99.90;;;;;;5085296;28;20468;-76
2022/02/08 12:32:59;;;;;;;7.28;2.30;;;12.40;99.90;;;;;;5088354;28;20032;-76
2022/02/08 12:35:37;;;;;;;7.97;2.08;;;12.40;99.90;;;;;;5084339;28;20020;-76
2022/02/08 12:55:35;;;;;;;7.57;1.98;;;12.50;99.90;;;;;;5086199;28;20032;-76
2022/02/08 13:00:54;;;;;;;4.63;2.10;;;12.60;99.90;;;;;;5088931;28;20089;-76
2022/02/08 13:03:49;;;;;;;6.13;2.40;;;12.60;99.90;;;;;;5083846;28;20028;-76
2022/02/08 14:14:40;;;;;;;5.50;1.73;;;12.60;99.90;;;;;;5088000;28;20412;-74
2022/02/08 14:20:16;;;;;;;7.82;1.92;;;12.50;99.90;;;;;;5084468;28;20028;-75
2022/02/08 14:23:05;;;;;;;7.82;2.08;;;12.60;99.90;;;;;;5090901;28;20040;-75
2022/02/08 14:25:44;;;;;;;10.25;1.88;;;12.60;99.90;;;;;;5089714;28;20150;-74
2022/02/08 14:31:36;;;;;;;6.03;2.22;;;12.70;99.90;;;;;;5091254;28;20032;-74
2022/02/08 15:08:40;;;;;;;4.82;1.88;;;12.60;99.90;;;;;;5089914;28;20035;-74
2022/02/08 15:11:09;;;;;;;6.78;2.03;;;12.60;99.90;;;;;;5091010;28;20484;-74
2022/02/08 15:13:40;;;;;;;8.38;2.13;;;12.60;99.90;;;;;;5088865;28;20115;-76
2022/02/08 15:16:19;;;;;;;7.72;2.45;;;12.70;99.90;;;;;;5089882;28;20465;-75
2022/02/08 15:18:44;;;;;;;7.32;2.42;;;12.70;99.90;;;;;;5089811;28;20024;-74
2022/02/08 15:21:14;;;;;;;6.75;2.30;;;12.70;99.90;;;;;;5085052;28;20062;-81
2022/02/08 15:23:40;;;;;;;4.32;1.90;;;12.60;99.90;;;;;;5090123;28;20028;-76
2022/02/08 15:26:06;;;;;;;8.90;2.17;;;12.60;99.90;;;;;;5084075;28;20039;-74
2022/02/08 15:28:32;;;;;;;6.32;2.30;;;12.60;99.90;;;;;;5091248;28;20025;-76
2022/02/08 15:30:59;;;;;;;7.63;2.00;;;12.60;99.90;;;;;;5085888;28;20024;-80
2022/02/08 15:33:25;;;;;;;7.40;2.22;;;12.50;99.90;;;;;;5082921;28;20039;-86
2022/02/08 15:35:53;;;;;;;6.60;2.40;;;12.60;99.90;;;;;;5078151;28;20016;-76
2022/02/08 15:38:19;;;;;;;6.13;2.30;;;12.60;99.90;;;;;;5082078;28;20075;-83
2022/02/08 15:40:45;;;;;;;10.10;2.20;;;12.60;99.90;;;;;;5091337;28;20024;-76
2022/02/08 15:43:14;;;;;;;6.55;2.05;;;12.50;99.90;;;;;;5092017;28;20040;-74
2022/02/08 15:45:48;;;;;;;7.35;2.58;;;12.50;99.90;;;;;;5083909;28;20123;-76
2022/02/08 15:48:20;;;;;;;6.70;2.47;;;12.50;99.90;;;;;;5086667;28;20086;-75
2022/02/08 16:09:22;;;;;;;7.05;2.25;;;12.50;99.90;;;;;;5082464;28;20110;-75
2022/02/08 16:14:31;;;;;;;7.63;2.25;;;12.50;99.90;;;;;;5089583;28;20086;-77
2022/02/08 16:25:21;;;;;;;6.75;2.00;;;12.40;99.90;;;;;;5086964;28;20032;-75
2022/02/08 16:31:00;;;;;;;5.63;2.33;;;12.30;99.90;;;;;;5088816;28;20427;-74
2022/02/08 16:49:50;;;;;;;4.55;2.20;;;12.00;99.90;;;;;;5081241;28;20035;-77
2022/02/08 16:57:38;;;;;;;3.00;1.48;;;12.00;99.90;;;;;;5081416;28;20086;-75
2022/02/08 17:00:07;;;;;;;2.05;1.30;;;11.90;99.90;;;;;;5086065;28;20098;-75
2022/02/08 17:02:36;;;;;;;3.58;1.80;;;11.80;99.90;;;;;;5085452;28;20624;-74
2022/02/08 17:05:03;;;;;;;5.57;1.70;;;11.80;99.90;;;;;;5087377;28;20023;-75
2022/02/08 17:07:35;;;;;;;3.58;1.90;;;11.70;99.90;;;;;;5085854;28;20032;-75
2022/02/08 17:10:04;;;;;;;5.75;1.30;;;11.70;99.90;;;;;;5087600;28;20020;-74
2022/02/08 17:12:36;;;;;;;5.90;2.30;;;11.70;99.90;;;;;;5088842;28;20070;-75
2022/02/08 17:48:03;;;;;;;3.25;1.52;;;11.60;99.90;;;;;;5088522;28;20047;-74
2022/02/08 17:50:07;;;;;;;5.32;2.03;;;11.60;99.90;;;;;;5080743;28;20054;-74
2022/02/08 17:52:34;;;;;;;6.05;1.65;;;11.60;99.90;;;;;;5086254;28;20473;-74
2022/02/08 17:55:00;;;;;;;6.18;1.65;;;11.60;99.90;;;;;;5089739;28;20099;-75
2022/02/08 17:57:25;;;;;;;5.45;1.60;;;11.60;99.90;;;;;;5089207;28;20111;-74
2022/02/08 17:59:54;;;;;;;4.68;2.58;;;11.50;99.90;;;;;;5087246;28;20061;-74
2022/02/08 18:02:24;;;;;;;5.68;2.00;;;11.50;99.90;;;;;;5087403;28;20519;-75
2022/02/08 18:04:53;;;;;;;5.43;2.00;;;11.50;99.90;;;;;;5087079;28;20154;-75
2022/02/08 18:07:23;;;;;;;3.28;1.88;;;11.50;99.90;;;;;;5082287;28;20130;-74
2022/02/08 18:09:50;;;;;;;8.05;1.90;;;11.60;99.90;;;;;;5084086;28;20043;-75
2022/02/08 18:12:18;;;;;;;5.85;1.70;;;11.60;99.90;;;;;;5082943;28;20075;-76
2022/02/08 18:14:49;;;;;;;5.85;2.15;;;11.50;99.90;;;;;;5079816;28;20397;-75
2022/02/08 18:17:20;;;;;;;3.70;1.92;;;11.50;99.90;;;;;;5085716;28;20028;-75
2022/02/08 18:19:56;;;;;;;7.50;2.13;;;11.60;99.90;;;;;;5087046;28;20065;-74
2022/02/08 19:06:58;;;;;;;7.15;2.50;;;11.60;99.90;;;;;;5090947;28;20035;-74
2022/02/08 19:16:18;;;;;;;4.18;2.20;;;11.40;99.90;;;;;;5079349;28;20037;-74
2022/02/08 19:19:33;;;;;;;6.43;1.90;;;11.50;99.90;;;;;;5089669;28;20016;-74
2022/02/08 19:21:44;;;;;;;4.67;2.70;;;11.50;99.90;;;;;;5082003;28;20064;-75
2022/02/08 19:24:09;;;;;;;5.88;2.30;;;11.50;99.90;;;;;;5091674;28;20052;-75
2022/02/08 19:26:35;;;;;;;9.45;2.60;;;11.40;99.90;;;;;;5088206;28;20071;-74
2022/02/08 19:29:01;;;;;;;5.53;2.33;;;11.50;99.90;;;;;;5089132;28;20024;-74
2022/02/08 19:31:26;;;;;;;5.80;2.28;;;11.50;99.90;;;;;;5092064;28;20020;-77
2022/02/08 19:33:55;;;;;;;3.20;2.10;;;11.50;99.90;;;;;;5087745;28;20047;-74
2022/02/08 19:36:21;;;;;;;5.28;2.20;;;11.50;99.90;;;;;;5091271;28;20380;-74
2022/02/08 19:38:50;;;;;;;6.13;2.17;;;11.50;99.90;;;;;;5094078;28;20125;-74
2022/02/08 19:41:19;;;;;;;3.72;2.10;;;11.40;99.90;;;;;;5082483;28;20082;-74
2022/02/08 19:43:47;;;;;;;9.30;2.25;;;11.30;99.90;;;;;;5088413;28;20058;-74
2022/02/08 19:46:13;;;;;;;6.60;2.08;;;11.30;99.90;;;;;;5088834;28;20071;-74
2022/02/08 19:48:39;;;;;;;4.10;2.10;;;11.30;99.90;;;;;;5091941;28;20545;-74
2022/02/08 19:51:05;;;;;;;5.45;2.05;;;11.30;99.90;;;;;;5084779;28;20024;-74
2022/02/08 19:53:33;;;;;;;7.10;2.80;;;11.30;99.90;;;;;;5086881;28;20116;-73
2022/02/08 19:56:18;;;;;;;5.35;2.30;;;11.20;99.90;;;;;;5090409;28;20035;-74
2022/02/08 19:58:51;;;;;;;4.45;2.45;;;11.30;99.90;;;;;;5086366;28;20415;-74
2022/02/08 20:01:54;;;;;;;5.25;2.67;;;11.30;99.90;;;;;;5085825;28;20616;-73
2022/02/08 20:04:19;;;;;;;4.30;2.60;;;11.30;99.90;;;;;;5085162;28;20047;-74
2022/02/08 20:06:46;;;;;;;6.47;2.72;;;11.40;99.90;;;;;;5086445;28;20037;-73
2022/02/08 20:09:11;;;;;;;5.15;2.35;;;11.40;99.90;;;;;;5092821;28;20036;-73
2022/02/08 20:11:38;;;;;;;6.00;2.95;;;11.30;99.90;;;;;;5083056;28;20032;-73
2022/02/08 20:14:07;;;;;;;10.55;8.95;;;11.30;99.90;;;;;;5088312;28;20048;-74
2022/02/08 20:16:34;;;;;;;7.13;3.35;;;11.30;99.90;;;;;;5083685;28;20498;-73
2022/02/08 20:19:02;;;;;;;6.85;2.85;;;11.30;99.90;;;;;;5088171;28;20035;-73
2022/02/08 20:21:30;;;;;;;7.15;3.17;;;11.30;99.90;;;;;;5087450;28;20024;-73
2022/02/08 20:24:02;;;;;;;6.53;3.40;;;11.30;99.90;;;;;;5090032;28;20039;-73
2022/02/08 20:29:20;;;;;;;5.32;3.30;;;11.30;99.90;;;;;;5079458;28;20472;-74
2022/02/08 20:31:47;;;;;;;5.90;2.90;;;11.30;99.90;;;;;;5088465;28;20448;-73
2022/02/08 20:34:22;;;;;;;6.38;2.50;;;11.30;99.90;;;;;;5087591;28;20468;-74
2022/02/08 20:36:48;;;;;;;5.50;3.00;;;11.40;99.90;;;;;;5084186;28;20031;-74
2022/02/08 20:39:15;;;;;;;6.53;4.55;;;11.30;99.90;;;;;;5089406;28;20016;-76
2022/02/08 20:41:41;;;;;;;5.53;3.50;;;11.40;99.90;;;;;;5088892;28;20408;-74
2022/02/08 20:44:10;;;;;;;7.00;3.15;;;11.40;99.90;;;;;;5084260;28;20020;-74
2022/02/08 20:46:37;;;;;;;6.78;3.00;;;11.30;99.90;;;;;;5084682;28;20044;-74
2022/02/08 20:49:04;;;;;;;4.82;2.70;;;11.30;99.90;;;;;;5087591;28;20020;-73
2022/02/08 20:51:30;;;;;;;5.15;2.33;;;11.30;99.90;;;;;;5087289;28;20036;-73
2022/02/08 20:53:59;;;;;;;4.28;2.50;;;11.20;99.90;;;;;;5081811;28;20384;-75
2022/02/08 21:01:31;;;;;;;3.67;1.73;;;11.20;99.90;;;;;;5082927;28;20111;-74
2022/02/08 21:04:07;;;;;;;3.90;2.15;;;11.10;99.90;;;;;;5082740;28;20029;-74